Gove, Northern Territory

11:01 PM ACST on February 06, 2016 (GMT +0930)
Gove | | Change Station
CLOSE
Current Station
Airport
Location: Gove,
Elevation: 190 ft
Nearby Weather Stations

Elev 190 ft 12.27 °S, 136.82 °E | Updated 31 minutes ago

Clear
Clear
79 °F
Feels Like 79 °F
N
0
Wind Variable Wind from North

Today
High -- | Low -- °F
--% Chance of Precip.
Yesterday
High -- | Low -- °F
Precip. -- in
Pressure 29.74 in
Visibility 6.2 miles
Clouds
Dew Point 75 °F
Humidity 89%
Rainfall 0.00 in
Snow Depth Not available.
6:18 AM 6:54 PM
Waning Crescent, 5% visible
METAR YPGV 061300Z AUTO 00000KT 9999 // NCD 26/24 Q1007
Pressure 29.74 in
Visibility 6.2 miles
Clouds
Dew Point 75 °F
Humidity 89%
Rainfall 0.00 in
Snow Depth Not available.
6:18 AM 6:54 PM
Waning Crescent, 5% visible
METAR YPGV 061300Z AUTO 00000KT 9999 // NCD 26/24 Q1007

10-Day Weather Forecast

Almanac

Astronomy

Feb. 06, 2016 Rise Set
Actual Time
Civil Twilight
Nautical Twilight
Astronomical Twilight
Moon
Length of Visible Light
Length of Day
Tomorrow will be .
, % of the Moon is Illuminated

Today's Extremes

Country Highs Country Lows

Community

WunderPhotos

Upload Photos

1,890,971 photos uploaded!

WunderBlog® & News

Nearby

Air Quality

  Air Quality AQ Index Pollutant
Not available.

Snow Depth

Station Depth Elevation

Earthquake Activity

City Distance Mag. Time & Date
Minimum magnitude displayed is 2.5.

Coastal Water Temperatures

Place Temperature

Stations

Nearby Weather Stations

Station Location Temp. Windchill Dew Point Humidity Wind Precip. Elev Updated Type